Time;durP1;ratioP1;P1;durP2;ratioP2;P2;SDS_P1;SDS_P2;PMS_P1;PMS_P2;Temp;Humidity;BMP_temperature;BMP_pressure;BME280_temperature;BME280_humidity;BME280_pressure;Samples;Min_cycle;Max_cycle;Signal;HPM_P1;HPM_P2
2023/05/01 00:00:06;;;;;;;8.35;6.70;;;9.20;1.00;;;;;;5070948;28;20029;-60
2023/05/01 00:02:31;;;;;;;10.45;7.40;;;9.10;1.00;;;;;;5070001;28;20059;-60
2023/05/01 00:04:57;;;;;;;11.63;7.30;;;9.00;1.00;;;;;;5071782;28;20029;-59
2023/05/01 00:07:24;;;;;;;12.27;7.03;;;9.00;1.00;;;;;;5071477;28;20028;-59
2023/05/01 00:09:50;;;;;;;10.00;7.53;;;8.90;1.00;;;;;;5071222;28;20016;-59
2023/05/01 00:12:16;;;;;;;7.95;7.15;;;8.80;1.00;;;;;;5069959;28;20027;-59
2023/05/01 00:14:42;;;;;;;8.85;8.00;;;8.80;1.00;;;;;;5070980;28;20099;-60
2023/05/01 00:17:08;;;;;;;9.38;8.00;;;8.70;1.00;;;;;;5071224;28;20032;-59
2023/05/01 00:19:34;;;;;;;12.02;8.25;;;8.60;1.00;;;;;;5071412;28;20013;-59
2023/05/01 00:21:59;;;;;;;9.65;8.65;;;8.50;1.00;;;;;;5071265;28;20027;-59
2023/05/01 00:24:26;;;;;;;10.07;8.40;;;8.40;1.00;;;;;;5070672;28;20684;-59
2023/05/01 00:26:52;;;;;;;10.35;9.15;;;8.30;1.00;;;;;;5070601;28;20025;-59
2023/05/01 00:29:17;;;;;;;12.77;8.23;;;8.20;8.90;;;;;;5070807;28;20028;-59
2023/05/01 00:31:44;;;;;;;11.57;10.23;;;8.20;10.50;;;;;;5071079;28;20443;-59
2023/05/01 00:34:10;;;;;;;11.18;9.75;;;8.10;18.20;;;;;;5071047;28;20020;-59
2023/05/01 00:36:36;;;;;;;18.13;9.10;;;8.10;19.90;;;;;;5070717;28;20024;-59
2023/05/01 00:39:02;;;;;;;9.70;8.70;;;8.10;20.40;;;;;;5070682;28;20086;-59
2023/05/01 00:41:28;;;;;;;12.15;9.10;;;8.20;19.50;;;;;;5071031;28;20487;-59
2023/05/01 00:43:54;;;;;;;10.43;9.18;;;8.10;18.50;;;;;;5070067;28;20020;-59
2023/05/01 00:46:20;;;;;;;11.27;8.85;;;8.10;21.20;;;;;;5071269;28;20435;-59
2023/05/01 00:48:46;;;;;;;12.07;9.25;;;8.10;19.60;;;;;;5071515;28;20113;-59
2023/05/01 00:51:12;;;;;;;12.48;8.80;;;8.10;17.10;;;;;;5071483;28;20111;-59
2023/05/01 00:53:43;;;;;;;11.15;9.55;;;8.10;19.90;;;;;;5071031;28;20473;-60
2023/05/01 00:56:09;;;;;;;12.88;8.88;;;8.10;19.90;;;;;;5071439;28;20073;-59
2023/05/01 00:58:35;;;;;;;11.27;8.90;;;8.10;22.40;;;;;;5071245;28;20457;-59
2023/05/01 01:01:01;;;;;;;14.43;9.68;;;8.00;24.80;;;;;;5071291;28;20017;-59
2023/05/01 01:03:27;;;;;;;11.50;9.18;;;8.10;27.30;;;;;;5071079;28;20554;-59
2023/05/01 01:05:57;;;;;;;10.75;9.00;;;8.00;30.30;;;;;;5071173;28;20333;-59
2023/05/01 01:08:34;;;;;;;13.07;10.40;;;8.00;32.80;;;;;;5070849;28;20503;-59
2023/05/01 01:11:26;;;;;;;10.80;9.55;;;8.00;35.20;;;;;;5071272;28;20035;-60
2023/05/01 01:14:00;;;;;;;15.15;10.02;;;7.90;39.60;;;;;;5071241;28;20408;-59
2023/05/01 01:16:58;;;;;;;14.35;9.18;;;7.90;44.00;;;;;;5071027;28;20024;-59
2023/05/01 01:19:52;;;;;;;11.25;10.13;;;7.90;44.50;;;;;;5071164;28;20104;-59
2023/05/01 01:22:23;;;;;;;16.10;10.80;;;7.80;49.60;;;;;;5050969;28;20033;-59
2023/05/01 01:24:58;;;;;;;15.57;10.48;;;7.80;49.10;;;;;;5070982;28;20039;-60
2023/05/01 01:27:23;;;;;;;13.07;10.32;;;7.80;54.40;;;;;;5070968;28;20024;-59
2023/05/01 01:30:14;;;;;;;17.40;10.80;;;7.80;54.10;;;;;;5070941;28;20021;-59
2023/05/01 01:33:17;;;;;;;12.93;10.35;;;7.80;53.90;;;;;;5071038;28;20063;-59
2023/05/01 01:35:51;;;;;;;12.10;10.15;;;7.80;53.30;;;;;;5069757;28;20028;-59
2023/05/01 01:38:23;;;;;;;15.35;10.10;;;7.80;53.20;;;;;;5070910;28;20021;-59
2023/05/01 01:40:58;;;;;;;11.23;10.02;;;7.90;52.10;;;;;;5074490;28;20027;-59
2023/05/01 01:43:25;;;;;;;13.45;10.07;;;7.90;53.20;;;;;;5074272;28;20040;-59
2023/05/01 01:46:01;;;;;;;14.40;11.00;;;7.80;55.40;;;;;;5074268;28;20021;-59
2023/05/01 01:48:33;;;;;;;14.18;10.65;;;7.80;54.50;;;;;;5074233;28;20695;-59
2023/05/01 01:51:01;;;;;;;12.88;11.23;;;7.90;54.80;;;;;;5074152;28;20097;-59
2023/05/01 01:53:29;;;;;;;14.07;11.23;;;7.80;55.00;;;;;;5073122;28;20042;-59
2023/05/01 01:55:58;;;;;;;15.27;11.05;;;7.80;55.40;;;;;;5073137;28;20480;-59
2023/05/01 01:58:25;;;;;;;17.88;11.73;;;7.70;60.60;;;;;;5072695;28;20035;-59
2023/05/01 02:00:54;;;;;;;12.43;10.68;;;7.70;61.70;;;;;;5073395;28;20024;-59
2023/05/01 02:03:20;;;;;;;14.75;11.70;;;7.70;60.40;;;;;;5073115;28;20407;-58
2023/05/01 02:05:48;;;;;;;19.00;11.45;;;7.70;60.10;;;;;;5073070;28;20012;-59
2023/05/01 02:08:15;;;;;;;16.85;11.93;;;7.70;60.40;;;;;;5073872;28;20103;-59
2023/05/01 02:10:43;;;;;;;14.00;11.48;;;7.60;62.00;;;;;;5073742;28;20032;-58
2023/05/01 02:13:10;;;;;;;14.57;11.40;;;7.60;61.00;;;;;;5073726;28;20020;-59
2023/05/01 02:15:39;;;;;;;13.63;10.95;;;7.60;61.10;;;;;;5073443;28;20023;-59
2023/05/01 02:18:05;;;;;;;13.68;11.57;;;7.60;63.00;;;;;;5073966;28;20190;-59
2023/05/01 02:20:32;;;;;;;19.17;11.80;;;7.60;64.30;;;;;;5073514;28;20025;-59
2023/05/01 02:22:59;;;;;;;21.75;12.23;;;7.50;66.30;;;;;;5073642;28;20115;-59
2023/05/01 02:25:26;;;;;;;14.00;11.60;;;7.50;66.90;;;;;;5073349;28;20020;-59
2023/05/01 02:27:59;;;;;;;14.63;11.68;;;7.50;66.10;;;;;;5073574;28;20019;-59
2023/05/01 02:30:25;;;;;;;19.88;12.00;;;7.40;67.50;;;;;;5073495;28;20039;-59
2023/05/01 02:32:51;;;;;;;16.88;12.02;;;7.40;67.20;;;;;;5073361;28;20029;-59
2023/05/01 02:35:17;;;;;;;14.98;11.23;;;7.40;68.80;;;;;;5073312;28;20025;-59
2023/05/01 02:37:43;;;;;;;16.55;13.35;;;7.40;67.80;;;;;;5073380;28;20025;-59
2023/05/01 02:40:13;;;;;;;17.00;11.30;;;7.40;68.40;;;;;;5073381;28;20040;-59
2023/05/01 02:42:42;;;;;;;15.65;12.05;;;7.50;67.70;;;;;;5071765;28;20719;-59
2023/05/01 02:45:16;;;;;;;13.85;11.85;;;7.50;65.60;;;;;;5073275;28;20052;-59
2023/05/01 02:47:44;;;;;;;16.40;11.07;;;7.50;63.40;;;;;;5071825;28;20538;-59
2023/05/01 02:50:12;;;;;;;16.88;11.35;;;7.50;61.40;;;;;;5072495;28;20029;-59
2023/05/01 02:52:37;;;;;;;18.33;11.07;;;7.40;65.00;;;;;;5072832;28;20035;-59
2023/05/01 02:55:04;;;;;;;16.52;11.63;;;7.40;62.90;;;;;;5071684;28;20111;-59
2023/05/01 02:57:32;;;;;;;18.35;12.18;;;7.40;64.70;;;;;;5073067;28;20058;-59
2023/05/01 02:59:58;;;;;;;16.85;11.38;;;7.30;65.10;;;;;;5071657;28;20028;-59
2023/05/01 03:02:24;;;;;;;14.45;11.35;;;7.30;66.20;;;;;;5072518;28;20053;-59
2023/05/01 03:04:49;;;;;;;19.30;11.93;;;7.30;65.10;;;;;;5072667;28;20032;-59
2023/05/01 03:07:15;;;;;;;13.80;11.20;;;7.30;65.60;;;;;;5072825;28;20746;-59
2023/05/01 03:09:41;;;;;;;14.55;11.60;;;7.30;65.60;;;;;;5072578;28;20108;-59
2023/05/01 03:12:06;;;;;;;14.93;11.45;;;7.20;67.10;;;;;;5072737;28;20020;-59
2023/05/01 03:14:32;;;;;;;13.45;11.73;;;7.20;68.20;;;;;;5072518;28;20031;-59
2023/05/01 03:16:57;;;;;;;13.63;11.45;;;7.20;69.40;;;;;;5072507;28;20031;-59
2023/05/01 03:19:23;;;;;;;12.77;11.45;;;7.10;69.30;;;;;;5072189;28;20020;-59
2023/05/01 03:21:49;;;;;;;16.23;11.60;;;7.10;69.00;;;;;;5072543;28;20163;-59
2023/05/01 03:24:14;;;;;;;13.00;11.50;;;7.10;68.80;;;;;;5072494;28;20108;-59
2023/05/01 03:26:40;;;;;;;15.80;11.43;;;7.10;70.30;;;;;;5072316;28;20103;-59
2023/05/01 03:29:06;;;;;;;19.38;11.70;;;7.00;70.00;;;;;;5072648;28;20459;-59
2023/05/01 03:31:32;;;;;;;12.75;11.02;;;7.00;69.80;;;;;;5072074;28;20027;-59
2023/05/01 03:33:57;;;;;;;15.82;11.30;;;7.00;70.30;;;;;;5072176;28;20020;-59
2023/05/01 03:36:24;;;;;;;16.23;12.40;;;7.00;71.70;;;;;;5072073;28;20025;-59
2023/05/01 03:38:49;;;;;;;18.02;12.20;;;6.90;70.50;;;;;;5070938;28;20094;-59
2023/05/01 03:41:15;;;;;;;15.43;11.60;;;6.90;68.40;;;;;;5070813;28;20032;-59
2023/05/01 03:43:41;;;;;;;18.85;12.07;;;6.90;69.30;;;;;;5071963;28;20036;-59
2023/05/01 03:46:06;;;;;;;14.43;11.90;;;6.90;66.60;;;;;;5071991;28;20029;-58
2023/05/01 03:48:32;;;;;;;12.30;10.75;;;6.90;66.90;;;;;;5071929;28;20422;-59
2023/05/01 03:50:58;;;;;;;12.07;10.77;;;7.00;64.60;;;;;;5072001;28;20063;-59
2023/05/01 03:53:23;;;;;;;15.68;12.00;;;6.90;64.50;;;;;;5071870;28;20025;-59
2023/05/01 03:55:49;;;;;;;13.80;11.40;;;6.80;65.60;;;;;;5071990;28;20020;-59
2023/05/01 03:58:15;;;;;;;14.85;11.43;;;6.80;63.90;;;;;;5072019;28;20471;-59
2023/05/01 04:00:40;;;;;;;16.15;12.32;;;6.80;63.50;;;;;;5071570;28;20041;-59
2023/05/01 04:03:06;;;;;;;17.40;10.45;;;6.80;65.00;;;;;;5070926;28;20052;-59
2023/05/01 04:05:32;;;;;;;12.10;10.23;;;6.80;62.50;;;;;;5071612;28;20436;-59
2023/05/01 04:07:58;;;;;;;12.13;9.68;;;6.80;63.70;;;;;;5071836;28;20145;-59
2023/05/01 04:10:23;;;;;;;15.88;9.75;;;6.80;61.20;;;;;;5071592;28;20123;-59
2023/05/01 04:12:49;;;;;;;13.63;10.63;;;6.80;59.20;;;;;;5071583;28;20111;-59
2023/05/01 04:15:15;;;;;;;14.30;11.45;;;6.80;59.20;;;;;;5071562;28;20021;-59
2023/05/01 04:17:42;;;;;;;14.35;10.02;;;6.80;58.80;;;;;;5071870;28;20024;-59
2023/05/01 04:20:09;;;;;;;14.63;10.38;;;6.80;56.20;;;;;;5071584;28;20036;-59
2023/05/01 04:22:36;;;;;;;14.00;10.98;;;6.80;59.00;;;;;;5071262;28;20044;-59
2023/05/01 04:25:02;;;;;;;15.70;10.40;;;6.80;57.70;;;;;;5071725;28;20032;-59
2023/05/01 04:27:28;;;;;;;11.73;10.23;;;6.80;56.40;;;;;;5071371;28;20116;-59
2023/05/01 04:29:54;;;;;;;13.38;10.45;;;6.90;55.90;;;;;;5071391;28;20025;-59
2023/05/01 04:32:19;;;;;;;13.20;10.05;;;6.90;53.30;;;;;;5071292;28;20035;-59
2023/05/01 04:34:45;;;;;;;11.38;9.35;;;6.90;51.80;;;;;;5071538;28;20479;-59
2023/05/01 04:37:11;;;;;;;15.15;10.07;;;6.80;51.90;;;;;;5071439;28;20460;-58
2023/05/01 04:39:37;;;;;;;15.25;10.80;;;6.80;54.30;;;;;;5071354;28;20033;-59
2023/05/01 04:42:03;;;;;;;11.82;9.75;;;6.80;54.70;;;;;;5071461;28;20035;-59
2023/05/01 04:44:29;;;;;;;17.38;10.40;;;6.80;53.50;;;;;;5071220;28;20021;-59
2023/05/01 04:46:55;;;;;;;11.48;8.68;;;6.90;50.40;;;;;;5070058;28;20471;-58
2023/05/01 04:49:23;;;;;;;14.88;9.25;;;6.90;52.30;;;;;;5071315;28;20047;-59
2023/05/01 04:51:49;;;;;;;16.13;9.82;;;6.90;53.10;;;;;;5071214;28;20035;-59
2023/05/01 04:54:15;;;;;;;12.43;8.88;;;6.90;52.30;;;;;;5071399;28;20034;-59
2023/05/01 04:56:40;;;;;;;18.60;10.90;;;6.90;50.80;;;;;;5071099;28;20016;-59
2023/05/01 04:59:06;;;;;;;14.15;9.98;;;6.90;54.90;;;;;;5071167;28;20666;-59
2023/05/01 05:01:32;;;;;;;12.80;10.50;;;7.00;51.70;;;;;;5070728;28;20536;-59
2023/05/01 05:03:58;;;;;;;14.38;9.40;;;7.00;48.00;;;;;;5071347;28;20086;-58
2023/05/01 05:06:23;;;;;;;17.25;10.45;;;7.10;46.80;;;;;;5070093;28;20056;-59
2023/05/01 05:08:52;;;;;;;15.35;10.30;;;7.10;47.60;;;;;;5071075;28;20033;-58
2023/05/01 05:11:18;;;;;;;12.73;8.95;;;7.20;46.30;;;;;;5070966;28;20086;-59
2023/05/01 05:13:44;;;;;;;11.20;9.82;;;7.20;39.70;;;;;;5073180;28;20028;-58
2023/05/01 05:16:10;;;;;;;13.02;10.07;;;7.30;38.80;;;;;;5074775;28;20111;-58
2023/05/01 05:18:37;;;;;;;11.15;9.10;;;7.50;26.00;;;;;;5074731;28;20023;-59
2023/05/01 05:21:07;;;;;;;16.38;9.40;;;7.50;25.90;;;;;;5074840;28;20025;-58
2023/05/01 05:23:33;;;;;;;11.55;8.68;;;7.60;22.00;;;;;;5073326;28;20055;-58
2023/05/01 05:26:00;;;;;;;12.07;8.73;;;7.70;16.70;;;;;;5074706;28;20052;-58
2023/05/01 05:28:27;;;;;;;13.27;9.88;;;7.70;12.50;;;;;;5074401;28;20107;-59
2023/05/01 05:30:53;;;;;;;10.10;8.90;;;7.80;14.50;;;;;;5074548;28;20020;-59
2023/05/01 05:33:19;;;;;;;16.17;8.48;;;7.90;4.40;;;;;;5074525;28;20032;-59
2023/05/01 05:35:44;;;;;;;13.52;8.07;;;8.10;1.50;;;;;;5074587;28;20379;-57
2023/05/01 05:38:10;;;;;;;9.75;8.68;;;8.10;1.00;;;;;;5074558;28;20021;-58
2023/05/01 05:40:36;;;;;;;21.33;7.75;;;8.10;1.00;;;;;;5074195;28;20758;-59
2023/05/01 05:43:01;;;;;;;10.43;7.88;;;8.20;1.00;;;;;;5074292;28;20047;-59
2023/05/01 05:45:28;;;;;;;15.23;8.35;;;8.20;1.00;;;;;;5074085;28;20060;-56
2023/05/01 05:47:53;;;;;;;13.93;7.75;;;8.30;1.00;;;;;;5074438;28;20107;-59
2023/05/01 05:50:19;;;;;;;19.02;10.45;;;8.40;1.00;;;;;;5074130;28;20120;-59
2023/05/01 05:52:45;;;;;;;15.02;8.80;;;8.50;1.00;;;;;;5074254;28;20035;-59
2023/05/01 05:55:10;;;;;;;13.15;7.95;;;8.50;1.00;;;;;;5074255;28;20562;-59
2023/05/01 05:57:36;;;;;;;17.30;8.25;;;8.40;1.00;;;;;;5072536;28;20466;-59
2023/05/01 06:00:04;;;;;;;13.55;7.70;;;8.50;1.00;;;;;;5073996;28;20015;-59
2023/05/01 06:02:30;;;;;;;12.05;7.88;;;8.60;1.00;;;;;;5072439;28;20098;-59
2023/05/01 06:04:56;;;;;;;13.15;8.05;;;8.60;1.00;;;;;;5072633;28;20020;-59
2023/05/01 06:07:24;;;;;;;9.55;8.02;;;8.60;1.00;;;;;;5072339;28;20020;-59
2023/05/01 06:09:50;;;;;;;10.98;7.78;;;8.60;1.00;;;;;;5073601;28;20035;-59
2023/05/01 06:12:15;;;;;;;8.40;7.45;;;8.70;1.00;;;;;;5073768;28;20024;-60
2023/05/01 06:14:41;;;;;;;13.35;8.30;;;8.70;1.00;;;;;;5073078;28;20025;-59
2023/05/01 06:17:07;;;;;;;10.65;7.93;;;8.70;1.00;;;;;;5074026;28;20052;-59
2023/05/01 06:19:33;;;;;;;12.57;7.50;;;8.70;1.00;;;;;;5073383;28;20030;-60
2023/05/01 06:21:59;;;;;;;13.90;6.80;;;8.90;1.00;;;;;;5073400;28;20052;-60
2023/05/01 06:24:26;;;;;;;11.65;7.60;;;8.90;1.00;;;;;;5070980;28;20059;-59
2023/05/01 06:26:52;;;;;;;12.63;7.32;;;9.00;1.00;;;;;;5073993;28;20411;-60
2023/05/01 06:29:18;;;;;;;9.05;6.68;;;9.10;1.00;;;;;;5073345;28;20029;-59
2023/05/01 06:31:44;;;;;;;14.35;8.38;;;9.20;1.00;;;;;;5073256;28;20069;-59
2023/05/01 06:34:10;;;;;;;15.93;7.15;;;9.20;1.00;;;;;;5073262;28;20020;-59
2023/05/01 06:36:36;;;;;;;17.13;7.13;;;9.30;1.00;;;;;;5073269;28;20025;-60
2023/05/01 06:39:01;;;;;;;9.85;7.28;;;9.50;1.00;;;;;;5073310;28;20406;-63
2023/05/01 06:41:27;;;;;;;16.13;7.60;;;9.60;1.00;;;;;;5073047;28;20028;-59
2023/05/01 06:43:53;;;;;;;10.90;7.65;;;9.70;1.00;;;;;;5071946;28;20357;-60
2023/05/01 06:46:18;;;;;;;14.50;8.45;;;9.90;1.00;;;;;;5072721;28;20025;-58
2023/05/01 06:48:44;;;;;;;9.18;6.93;;;9.90;1.00;;;;;;5072378;28;20047;-60
2023/05/01 06:51:10;;;;;;;9.77;6.70;;;10.10;1.00;;;;;;5072469;28;20055;-60
2023/05/01 06:53:36;;;;;;;12.70;6.93;;;10.30;1.00;;;;;;5072226;28;20032;-59
2023/05/01 06:56:02;;;;;;;11.23;6.90;;;10.20;1.00;;;;;;5072218;28;20025;-59
2023/05/01 06:58:27;;;;;;;15.20;6.45;;;10.30;99.90;;;;;;5071716;28;20157;-60
2023/05/01 07:00:53;;;;;;;11.85;6.88;;;10.40;99.90;;;;;;5071509;28;20013;-59
2023/05/01 07:03:18;;;;;;;17.88;7.32;;;10.50;99.90;;;;;;5071701;28;20044;-59
2023/05/01 07:05:44;;;;;;;8.15;6.50;;;10.60;99.90;;;;;;5071895;28;20391;-64
2023/05/01 07:08:10;;;;;;;8.55;6.20;;;10.70;99.90;;;;;;5056164;28;20668;-59
2023/05/01 07:10:35;;;;;;;12.38;7.15;;;10.80;99.90;;;;;;5041083;28;20040;-59
2023/05/01 07:13:01;;;;;;;9.77;6.72;;;11.00;99.90;;;;;;5041079;28;20044;-59
2023/05/01 07:15:27;;;;;;;9.50;6.45;;;11.10;99.90;;;;;;5042223;28;20121;-59
2023/05/01 07:17:52;;;;;;;14.13;6.43;;;11.10;99.90;;;;;;5041821;28;20068;-58
2023/05/01 07:20:18;;;;;;;16.27;7.18;;;11.20;99.90;;;;;;5040923;28;20059;-59
2023/05/01 07:22:44;;;;;;;10.40;6.90;;;11.30;99.90;;;;;;5041180;28;20033;-59
2023/05/01 07:25:09;;;;;;;7.10;5.85;;;11.30;19.30;;;;;;5041674;28;20040;-59
2023/05/01 07:27:35;;;;;;;8.35;6.43;;;11.40;89.00;;;;;;5038798;28;20076;-59
2023/05/01 07:30:03;;;;;;;10.02;5.80;;;11.60;73.00;;;;;;5042460;28;20035;-59
2023/05/01 07:32:29;;;;;;;9.45;5.95;;;11.80;99.90;;;;;;5042549;28;20028;-59
2023/05/01 07:34:57;;;;;;;9.95;6.10;;;11.90;1.00;;;;;;5040921;28;20396;-59
2023/05/01 07:37:23;;;;;;;10.75;6.05;;;12.00;1.00;;;;;;5041133;28;20032;-60
2023/05/01 07:39:48;;;;;;;10.40;5.78;;;12.10;99.90;;;;;;5040080;28;20090;-59
2023/05/01 07:42:14;;;;;;;8.65;6.63;;;12.30;99.90;;;;;;5041428;28;20033;-59
2023/05/01 07:44:40;;;;;;;10.07;4.93;;;12.40;99.90;;;;;;5041474;28;20460;-58
2023/05/01 07:47:06;;;;;;;9.30;5.63;;;12.50;99.90;;;;;;5041087;28;20045;-60
2023/05/01 07:49:37;;;;;;;6.13;5.28;;;12.60;94.10;;;;;;5040956;28;20082;-59
2023/05/01 07:52:06;;;;;;;7.82;5.53;;;12.60;1.00;;;;;;5042711;28;20032;-59
2023/05/01 07:54:32;;;;;;;6.30;5.22;;;12.70;99.90;;;;;;5040695;28;20029;-59
2023/05/01 07:56:58;;;;;;;10.48;6.47;;;12.80;1.00;;;;;;5042426;28;20059;-58
2023/05/01 07:59:23;;;;;;;10.43;5.88;;;13.00;1.00;;;;;;5041477;28;20071;-59
2023/05/01 08:01:49;;;;;;;9.60;5.82;;;13.10;1.00;;;;;;5045200;28;20120;-59
2023/05/01 08:04:16;;;;;;;10.55;5.15;;;13.20;99.90;;;;;;5047308;28;20033;-59
2023/05/01 08:06:42;;;;;;;10.48;6.35;;;13.00;52.10;;;;;;5040903;28;20029;-59
2023/05/01 08:09:07;;;;;;;6.38;5.25;;;13.30;99.90;;;;;;5039193;28;20498;-59
2023/05/01 08:11:33;;;;;;;9.38;6.20;;;13.50;99.90;;;;;;5040921;28;20048;-59
2023/05/01 08:13:58;;;;;;;7.93;5.10;;;13.90;99.90;;;;;;5041093;28;20028;-59
2023/05/01 08:16:24;;;;;;;22.38;18.95;;;14.10;99.80;;;;;;5040915;28;20032;-59
2023/05/01 08:18:50;;;;;;;9.77;7.03;;;14.30;1.00;;;;;;5040761;28;20033;-59
2023/05/01 08:21:15;;;;;;;8.82;8.02;;;14.00;99.90;;;;;;5045918;28;20067;-59
2023/05/01 08:23:41;;;;;;;8.93;5.57;;;14.40;1.00;;;;;;5041060;28;20470;-61
2023/05/01 08:26:07;;;;;;;11.52;5.20;;;14.60;1.00;;;;;;5041423;28;20393;-62
2023/05/01 08:28:36;;;;;;;9.10;6.60;;;14.80;99.90;;;;;;5041226;28;20032;-60
2023/05/01 08:31:02;;;;;;;9.07;6.45;;;15.00;1.00;;;;;;5040501;28;20013;-59
2023/05/01 08:33:28;;;;;;;8.27;6.00;;;14.90;99.90;;;;;;5039109;28;20037;-59
2023/05/01 08:35:54;;;;;;;8.48;5.53;;;14.90;1.00;;;;;;5041587;28;20082;-60
2023/05/01 08:38:19;;;;;;;9.05;5.63;;;14.80;1.00;;;;;;5042118;28;20537;-60
2023/05/01 08:40:52;;;;;;;7.55;6.00;;;14.80;1.00;;;;;;5040282;28;20037;-60
2023/05/01 08:43:19;;;;;;;15.45;7.45;;;14.70;1.00;;;;;;5041707;28;20548;-60
2023/05/01 08:45:46;;;;;;;9.48;5.43;;;14.80;99.90;;;;;;5040899;28;20033;-60
2023/05/01 08:48:15;;;;;;;14.00;6.13;;;14.80;99.90;;;;;;5042073;28;20033;-60
2023/05/01 08:50:45;;;;;;;7.13;6.03;;;14.80;99.90;;;;;;5044676;28;20056;-60
2023/05/01 08:53:12;;;;;;;8.70;5.85;;;14.70;99.90;;;;;;5047966;28;20032;-60
2023/05/01 08:55:39;;;;;;;12.82;5.82;;;14.80;1.00;;;;;;5044513;28;20554;-60
2023/05/01 08:58:06;;;;;;;7.70;6.00;;;15.00;1.00;;;;;;5046159;28;20041;-60
2023/05/01 09:00:34;;;;;;;7.18;5.47;;;15.20;99.90;;;;;;5044204;28;20029;-59
2023/05/01 09:03:01;;;;;;;8.10;5.30;;;15.60;1.00;;;;;;5047842;28;20041;-60
2023/05/01 09:05:28;;;;;;;8.63;5.15;;;15.90;58.70;;;;;;5045420;28;20033;-60
2023/05/01 09:07:55;;;;;;;9.65;5.85;;;15.80;99.90;;;;;;5044437;28;20025;-60
2023/05/01 09:10:20;;;;;;;8.25;5.70;;;16.10;99.90;;;;;;5044640;28;20057;-60
2023/05/01 09:12:51;;;;;;;7.30;4.70;;;16.20;99.90;;;;;;5045020;28;20440;-60
2023/05/01 09:15:17;;;;;;;7.88;4.88;;;16.30;30.60;;;;;;5044488;28;20017;-60
2023/05/01 09:17:43;;;;;;;7.95;5.40;;;16.10;1.00;;;;;;5044645;28;20568;-60
2023/05/01 09:20:10;;;;;;;6.55;4.38;;;15.90;99.90;;;;;;5045347;28;20132;-60
2023/05/01 09:22:35;;;;;;;9.23;5.25;;;15.80;99.90;;;;;;5044011;28;20353;-61
2023/05/01 09:25:02;;;;;;;6.22;4.85;;;16.00;99.90;;;;;;5043543;28;20044;-60
2023/05/01 09:27:32;;;;;;;8.85;5.20;;;16.40;99.90;;;;;;5045559;28;20083;-60
2023/05/01 09:29:58;;;;;;;8.70;4.68;;;16.30;99.90;;;;;;5044539;28;20036;-60
2023/05/01 09:32:27;;;;;;;8.07;5.00;;;16.30;99.90;;;;;;5050687;28;20715;-60
2023/05/01 09:34:53;;;;;;;11.27;5.35;;;16.60;57.40;;;;;;5047982;28;20021;-60
2023/05/01 09:37:32;;;;;;;6.93;4.93;;;16.60;99.90;;;;;;5044224;28;20027;-60
2023/05/01 09:40:03;;;;;;;7.13;4.90;;;16.90;99.90;;;;;;5046752;28;20135;-60
2023/05/01 09:42:31;;;;;;;7.05;5.03;;;17.00;99.90;;;;;;5053356;28;20472;-60
2023/05/01 09:44:57;;;;;;;13.18;5.70;;;17.20;1.00;;;;;;5043489;28;20364;-60
2023/05/01 09:47:23;;;;;;;6.07;4.75;;;17.30;1.00;;;;;;5048793;28;20087;-60
2023/05/01 09:49:48;;;;;;;7.63;4.88;;;17.80;91.00;;;;;;5053615;28;20060;-60
2023/05/01 09:52:15;;;;;;;6.45;4.30;;;18.10;1.00;;;;;;5053087;28;20102;-60
2023/05/01 09:54:42;;;;;;;12.32;4.68;;;18.20;99.90;;;;;;5052648;28;20021;-60
2023/05/01 09:57:07;;;;;;;11.20;4.78;;;18.10;1.00;;;;;;5052972;28;20645;-61
2023/05/01 09:59:33;;;;;;;5.65;4.10;;;18.30;99.90;;;;;;5052243;28;20025;-71
2023/05/01 10:02:00;;;;;;;6.63;4.38;;;18.30;99.90;;;;;;5053114;28;20076;-60
2023/05/01 10:04:33;;;;;;;11.00;5.82;;;18.10;99.90;;;;;;5052659;28;20017;-60
2023/05/01 10:07:19;;;;;;;5.53;4.38;;;18.00;99.90;;;;;;5085208;28;20032;-60
2023/05/01 10:09:45;;;;;;;7.45;4.15;;;18.10;99.90;;;;;;5052944;28;20029;-60
2023/05/01 10:12:23;;;;;;;9.18;5.68;;;18.20;99.90;;;;;;5053670;28;20075;-60
2023/05/01 10:14:56;;;;;;;9.55;5.10;;;18.20;62.20;;;;;;5085733;28;20029;-60
2023/05/01 10:17:22;;;;;;;6.15;4.13;;;18.30;22.70;;;;;;5053211;28;20029;-60
2023/05/01 10:19:48;;;;;;;8.85;5.18;;;18.70;99.90;;;;;;5053541;28;20075;-61
2023/05/01 10:22:14;;;;;;;10.02;5.70;;;18.90;19.60;;;;;;5053568;28;20464;-60
2023/05/01 10:24:40;;;;;;;7.80;5.13;;;19.50;99.90;;;;;;5053386;28;20087;-60
2023/05/01 10:27:07;;;;;;;7.38;4.68;;;19.30;1.00;;;;;;5053525;28;20532;-61
2023/05/01 10:29:36;;;;;;;8.30;4.55;;;19.10;1.00;;;;;;5053375;28;20423;-60
2023/05/01 10:32:08;;;;;;;8.40;5.13;;;18.90;1.00;;;;;;5053341;28;20400;-60
2023/05/01 10:34:37;;;;;;;9.27;3.92;;;18.50;1.00;;;;;;5053404;28;20465;-60
2023/05/01 10:37:12;;;;;;;5.78;4.20;;;18.50;8.30;;;;;;5053316;28;20017;-60
2023/05/01 10:39:38;;;;;;;5.60;4.60;;;18.30;96.90;;;;;;5085303;28;20050;-60
2023/05/01 10:42:16;;;;;;;6.80;4.65;;;18.90;80.30;;;;;;5053405;28;20459;-61
2023/05/01 10:44:42;;;;;;;7.72;5.28;;;19.00;1.00;;;;;;5043360;28;20029;-61
2023/05/01 10:47:24;;;;;;;5.50;4.97;;;19.30;1.00;;;;;;5056321;28;20036;-60
2023/05/01 10:50:09;;;;;;;9.02;4.88;;;19.50;1.00;;;;;;5044452;28;20036;-60
2023/05/01 10:53:13;;;;;;;6.43;4.20;;;19.90;1.00;;;;;;5042625;28;20055;-60
2023/05/01 10:55:43;;;;;;;7.85;4.43;;;20.10;1.00;;;;;;5042153;28;20593;-59
2023/05/01 10:58:09;;;;;;;8.93;4.53;;;20.20;1.00;;;;;;5048871;28;20104;-58
2023/05/01 11:00:35;;;;;;;8.38;5.85;;;20.00;1.00;;;;;;5041317;28;20029;-60
2023/05/01 11:03:20;;;;;;;5.00;4.13;;;20.20;99.90;;;;;;5042339;28;20049;-60
2023/05/01 11:06:03;;;;;;;5.30;3.80;;;19.90;99.90;;;;;;5043608;28;20053;-60
2023/05/01 11:08:32;;;;;;;7.50;3.93;;;20.00;99.90;;;;;;5042515;28;20033;-60
2023/05/01 11:11:17;;;;;;;5.15;3.95;;;20.10;99.90;;;;;;5051480;28;20033;-60
2023/05/01 11:13:58;;;;;;;5.55;4.20;;;20.10;99.90;;;;;;5041893;28;20399;-60
2023/05/01 11:16:36;;;;;;;8.02;4.63;;;19.80;99.90;;;;;;5043604;28;20368;-60
2023/05/01 11:19:06;;;;;;;5.40;3.58;;;20.40;99.90;;;;;;5041933;28;20032;-61
2023/05/01 11:21:34;;;;;;;6.18;3.90;;;20.60;99.90;;;;;;5041141;28;20036;-60
2023/05/01 11:24:00;;;;;;;6.10;3.60;;;20.70;99.90;;;;;;5045534;28;20108;-60
2023/05/01 11:26:27;;;;;;;3.80;3.13;;;21.00;99.90;;;;;;5052481;28;20033;-60
2023/05/01 11:28:54;;;;;;;6.07;2.95;;;21.30;99.90;;;;;;5052407;28;20083;-60
2023/05/01 11:31:20;;;;;;;8.77;3.72;;;21.10;99.90;;;;;;5052152;28;20052;-60
2023/05/01 11:33:46;;;;;;;4.40;3.70;;;21.20;99.90;;;;;;5051355;28;20021;-60
2023/05/01 11:36:13;;;;;;;6.18;3.72;;;21.30;99.90;;;;;;5050922;28;20576;-60
2023/05/01 11:38:52;;;;;;;9.27;3.80;;;21.70;99.90;;;;;;5051654;28;20373;-60
2023/05/01 11:41:21;;;;;;;9.68;4.03;;;22.00;99.90;;;;;;5051816;28;20475;-60
2023/05/01 11:43:55;;;;;;;3.88;3.28;;;22.30;99.90;;;;;;5051925;28;20072;-60
2023/05/01 11:46:28;;;;;;;5.57;3.10;;;22.90;99.90;;;;;;5050381;28;20115;-60
2023/05/01 11:48:55;;;;;;;5.50;3.20;;;23.00;99.90;;;;;;5051772;28;20021;-61
2023/05/01 11:51:21;;;;;;;2.78;2.30;;;23.40;99.90;;;;;;5051480;28;20548;-61
2023/05/01 11:54:03;;;;;;;5.28;2.65;;;24.00;99.90;;;;;;5051858;28;20021;-61
2023/05/01 11:56:30;;;;;;;4.45;2.80;;;23.60;99.90;;;;;;5051572;28;20044;-61
2023/05/01 11:59:15;;;;;;;5.97;3.20;;;23.20;99.90;;;;;;5051640;28;20033;-61
2023/05/01 12:01:43;;;;;;;4.20;3.75;;;22.50;99.90;;;;;;5051110;28;20141;-61
2023/05/01 12:04:10;;;;;;;3.00;2.78;;;22.70;99.90;;;;;;5051602;28;20021;-61
2023/05/01 12:06:44;;;;;;;6.25;3.00;;;22.60;99.90;;;;;;5050640;28;20033;-61
2023/05/01 12:09:21;;;;;;;2.47;2.28;;;22.90;99.90;;;;;;5050891;28;20025;-61
2023/05/01 12:11:52;;;;;;;8.90;3.15;;;23.20;99.90;;;;;;5050154;28;20048;-61
2023/05/01 12:14:18;;;;;;;3.65;2.60;;;23.00;99.90;;;;;;5050955;28;20029;-61
2023/05/01 12:16:45;;;;;;;9.98;2.83;;;23.00;99.90;;;;;;5050872;28;20104;-61
2023/05/01 12:19:13;;;;;;;7.05;2.55;;;23.60;99.90;;;;;;5050812;28;20025;-61
2023/05/01 12:21:39;;;;;;;6.65;2.30;;;24.70;99.90;;;;;;5050565;28;20494;-61
2023/05/01 12:24:17;;;;;;;4.72;2.55;;;25.20;99.90;;;;;;5050535;28;20388;-61
2023/05/01 12:26:44;;;;;;;2.38;2.08;;;24.40;98.10;;;;;;5051130;28;20027;-61
2023/05/01 12:29:10;;;;;;;4.82;2.95;;;25.00;94.40;;;;;;5050928;28;20086;-61
2023/05/01 12:31:47;;;;;;;4.32;2.05;;;25.50;95.80;;;;;;5050913;28;20021;-61
2023/05/01 12:34:13;;;;;;;1.92;1.70;;;25.70;99.90;;;;;;5051167;28;20666;-59
2023/05/01 12:36:38;;;;;;;3.60;2.17;;;26.20;92.80;;;;;;5050969;28;20025;-59
2023/05/01 12:39:06;;;;;;;4.45;2.20;;;26.00;99.90;;;;;;5051052;28;20021;-59
2023/05/01 12:41:47;;;;;;;3.03;1.83;;;25.80;99.90;;;;;;5050617;28;20021;-59
2023/05/01 12:44:26;;;;;;;2.58;1.73;;;25.80;83.20;;;;;;5050499;28;20028;-59
2023/05/01 12:47:00;;;;;;;3.15;1.77;;;25.30;68.10;;;;;;5050750;28;20032;-59
2023/05/01 12:49:27;;;;;;;6.95;1.95;;;24.80;75.10;;;;;;5051471;28;20071;-59